sensor_id;sensor_type;location;lat;lon;timestamp;P1;durP1;ratioP1;P2;durP2;ratioP2
19341;SDS011;9807;48.258;12.690;2023-08-17T00:01:44;5.63;;;5.13;;
19341;SDS011;9807;48.258;12.690;2023-08-17T00:04:10;5.60;;;4.40;;
19341;SDS011;9807;48.258;12.690;2023-08-17T00:06:35;5.77;;;4.90;;
19341;SDS011;9807;48.258;12.690;2023-08-17T00:09:01;6.47;;;5.87;;
19341;SDS011;9807;48.258;12.690;2023-08-17T00:11:32;5.40;;;4.90;;
19341;SDS011;9807;48.258;12.690;2023-08-17T00:13:58;6.43;;;5.70;;
19341;SDS011;9807;48.258;12.690;2023-08-17T00:16:25;15.57;;;7.10;;
19341;SDS011;9807;48.258;12.690;2023-08-17T00:18:51;7.27;;;5.47;;
19341;SDS011;9807;48.258;12.690;2023-08-17T00:21:16;9.60;;;6.80;;
19341;SDS011;9807;48.258;12.690;2023-08-17T00:23:42;5.00;;;4.50;;
19341;SDS011;9807;48.258;12.690;2023-08-17T00:26:08;4.27;;;3.87;;
19341;SDS011;9807;48.258;12.690;2023-08-17T00:28:34;3.97;;;3.67;;
19341;SDS011;9807;48.258;12.690;2023-08-17T00:31:00;6.00;;;5.50;;
19341;SDS011;9807;48.258;12.690;2023-08-17T00:33:26;10.70;;;8.13;;
19341;SDS011;9807;48.258;12.690;2023-08-17T00:35:52;7.10;;;5.63;;
19341;SDS011;9807;48.258;12.690;2023-08-17T00:38:17;6.50;;;4.40;;
19341;SDS011;9807;48.258;12.690;2023-08-17T00:40:43;3.93;;;3.63;;
19341;SDS011;9807;48.258;12.690;2023-08-17T00:43:09;4.30;;;3.87;;
19341;SDS011;9807;48.258;12.690;2023-08-17T00:45:35;5.67;;;5.10;;
19341;SDS011;9807;48.258;12.690;2023-08-17T00:48:00;5.70;;;4.93;;
19341;SDS011;9807;48.258;12.690;2023-08-17T00:50:28;7.67;;;5.50;;
19341;SDS011;9807;48.258;12.690;2023-08-17T00:52:54;9.23;;;5.83;;
19341;SDS011;9807;48.258;12.690;2023-08-17T00:55:21;4.87;;;4.47;;
19341;SDS011;9807;48.258;12.690;2023-08-17T00:57:47;4.73;;;4.33;;
19341;SDS011;9807;48.258;12.690;2023-08-17T01:00:13;5.70;;;5.07;;
19341;SDS011;9807;48.258;12.690;2023-08-17T01:02:40;4.70;;;4.30;;
19341;SDS011;9807;48.258;12.690;2023-08-17T01:05:06;6.10;;;4.83;;
19341;SDS011;9807;48.258;12.690;2023-08-17T01:07:33;7.00;;;4.23;;
19341;SDS011;9807;48.258;12.690;2023-08-17T01:09:59;4.77;;;4.30;;
19341;SDS011;9807;48.258;12.690;2023-08-17T01:12:30;5.00;;;4.20;;
19341;SDS011;9807;48.258;12.690;2023-08-17T01:15:04;3.97;;;3.67;;
19341;SDS011;9807;48.258;12.690;2023-08-17T01:20:22;4.00;;;3.70;;
19341;SDS011;9807;48.258;12.690;2023-08-17T01:22:50;5.20;;;3.90;;
19341;SDS011;9807;48.258;12.690;2023-08-17T01:25:21;4.10;;;3.70;;
19341;SDS011;9807;48.258;12.690;2023-08-17T01:27:48;3.60;;;3.30;;
19341;SDS011;9807;48.258;12.690;2023-08-17T01:30:14;5.10;;;4.70;;
19341;SDS011;9807;48.258;12.690;2023-08-17T01:32:51;6.27;;;4.10;;
19341;SDS011;9807;48.258;12.690;2023-08-17T01:35:28;4.90;;;4.40;;
19341;SDS011;9807;48.258;12.690;2023-08-17T01:37:56;9.57;;;4.77;;
19341;SDS011;9807;48.258;12.690;2023-08-17T01:40:26;6.83;;;5.03;;
19341;SDS011;9807;48.258;12.690;2023-08-17T01:42:53;5.83;;;5.10;;
19341;SDS011;9807;48.258;12.690;2023-08-17T01:45:20;5.40;;;4.10;;
19341;SDS011;9807;48.258;12.690;2023-08-17T01:47:46;6.27;;;5.03;;
19341;SDS011;9807;48.258;12.690;2023-08-17T01:50:13;10.10;;;4.80;;
19341;SDS011;9807;48.258;12.690;2023-08-17T01:52:39;3.87;;;3.57;;
19341;SDS011;9807;48.258;12.690;2023-08-17T01:55:05;3.83;;;3.53;;
19341;SDS011;9807;48.258;12.690;2023-08-17T01:57:31;4.40;;;3.90;;
19341;SDS011;9807;48.258;12.690;2023-08-17T01:59:56;3.97;;;3.67;;
19341;SDS011;9807;48.258;12.690;2023-08-17T02:02:22;6.93;;;5.27;;
19341;SDS011;9807;48.258;12.690;2023-08-17T02:04:48;3.80;;;3.50;;
19341;SDS011;9807;48.258;12.690;2023-08-17T02:07:14;4.57;;;3.80;;
19341;SDS011;9807;48.258;12.690;2023-08-17T02:09:40;4.80;;;4.40;;
19341;SDS011;9807;48.258;12.690;2023-08-17T02:12:05;4.33;;;3.93;;
19341;SDS011;9807;48.258;12.690;2023-08-17T02:14:33;6.27;;;4.00;;
19341;SDS011;9807;48.258;12.690;2023-08-17T02:16:58;3.50;;;3.30;;
19341;SDS011;9807;48.258;12.690;2023-08-17T02:19:24;3.47;;;3.17;;
19341;SDS011;9807;48.258;12.690;2023-08-17T02:21:50;4.80;;;4.40;;
19341;SDS011;9807;48.258;12.690;2023-08-17T02:24:16;4.07;;;3.50;;
19341;SDS011;9807;48.258;12.690;2023-08-17T02:26:41;7.13;;;3.70;;
19341;SDS011;9807;48.258;12.690;2023-08-17T02:29:07;6.43;;;5.77;;
19341;SDS011;9807;48.258;12.690;2023-08-17T02:31:33;19.43;;;5.70;;
19341;SDS011;9807;48.258;12.690;2023-08-17T02:33:58;15.90;;;5.57;;
19341;SDS011;9807;48.258;12.690;2023-08-17T02:36:29;4.20;;;3.90;;
19341;SDS011;9807;48.258;12.690;2023-08-17T02:38:56;9.67;;;5.30;;
19341;SDS011;9807;48.258;12.690;2023-08-17T02:41:21;5.70;;;5.20;;
19341;SDS011;9807;48.258;12.690;2023-08-17T02:43:47;4.30;;;3.90;;
19341;SDS011;9807;48.258;12.690;2023-08-17T02:46:13;8.17;;;6.10;;
19341;SDS011;9807;48.258;12.690;2023-08-17T02:48:39;5.90;;;5.30;;
19341;SDS011;9807;48.258;12.690;2023-08-17T02:51:04;9.47;;;7.73;;
19341;SDS011;9807;48.258;12.690;2023-08-17T02:53:31;11.63;;;7.60;;
19341;SDS011;9807;48.258;12.690;2023-08-17T02:55:57;8.17;;;4.60;;
19341;SDS011;9807;48.258;12.690;2023-08-17T02:58:22;12.97;;;5.90;;
19341;SDS011;9807;48.258;12.690;2023-08-17T03:00:50;5.80;;;5.20;;
19341;SDS011;9807;48.258;12.690;2023-08-17T03:03:16;5.03;;;4.10;;
19341;SDS011;9807;48.258;12.690;2023-08-17T03:05:42;4.63;;;4.23;;
19341;SDS011;9807;48.258;12.690;2023-08-17T03:08:07;15.10;;;4.97;;
19341;SDS011;9807;48.258;12.690;2023-08-17T03:10:34;7.40;;;4.50;;
19341;SDS011;9807;48.258;12.690;2023-08-17T03:12:59;4.10;;;3.70;;
19341;SDS011;9807;48.258;12.690;2023-08-17T03:15:25;5.10;;;4.60;;
19341;SDS011;9807;48.258;12.690;2023-08-17T03:17:51;4.10;;;3.80;;
19341;SDS011;9807;48.258;12.690;2023-08-17T03:20:16;4.00;;;3.60;;
19341;SDS011;9807;48.258;12.690;2023-08-17T03:22:42;3.50;;;3.20;;
19341;SDS011;9807;48.258;12.690;2023-08-17T03:25:08;4.77;;;3.17;;
19341;SDS011;9807;48.258;12.690;2023-08-17T03:27:34;5.90;;;4.07;;
19341;SDS011;9807;48.258;12.690;2023-08-17T03:29:59;3.80;;;3.40;;
19341;SDS011;9807;48.258;12.690;2023-08-17T03:32:25;3.23;;;3.00;;
19341;SDS011;9807;48.258;12.690;2023-08-17T03:34:51;3.87;;;3.30;;
19341;SDS011;9807;48.258;12.690;2023-08-17T03:37:17;3.77;;;3.47;;
19341;SDS011;9807;48.258;12.690;2023-08-17T03:39:42;3.47;;;3.17;;
19341;SDS011;9807;48.258;12.690;2023-08-17T03:42:08;3.60;;;3.30;;
19341;SDS011;9807;48.258;12.690;2023-08-17T03:44:34;4.27;;;3.37;;
19341;SDS011;9807;48.258;12.690;2023-08-17T03:46:59;4.20;;;3.80;;
19341;SDS011;9807;48.258;12.690;2023-08-17T03:49:25;3.90;;;3.60;;
19341;SDS011;9807;48.258;12.690;2023-08-17T03:51:51;3.63;;;3.33;;
19341;SDS011;9807;48.258;12.690;2023-08-17T03:54:17;3.40;;;2.97;;
19341;SDS011;9807;48.258;12.690;2023-08-17T03:56:43;3.50;;;3.20;;
19341;SDS011;9807;48.258;12.690;2023-08-17T03:59:08;3.40;;;3.10;;
19341;SDS011;9807;48.258;12.690;2023-08-17T04:01:34;3.40;;;3.20;;
19341;SDS011;9807;48.258;12.690;2023-08-17T04:04:00;3.67;;;3.30;;
19341;SDS011;9807;48.258;12.690;2023-08-17T04:06:25;3.47;;;3.27;;
19341;SDS011;9807;48.258;12.690;2023-08-17T04:08:51;3.83;;;3.53;;
19341;SDS011;9807;48.258;12.690;2023-08-17T04:11:16;3.30;;;3.00;;
19341;SDS011;9807;48.258;12.690;2023-08-17T04:13:43;3.70;;;3.40;;
19341;SDS011;9807;48.258;12.690;2023-08-17T04:16:08;11.43;;;3.27;;
19341;SDS011;9807;48.258;12.690;2023-08-17T04:18:34;18.60;;;4.00;;
19341;SDS011;9807;48.258;12.690;2023-08-17T04:20:59;21.80;;;4.20;;
19341;SDS011;9807;48.258;12.690;2023-08-17T04:23:25;8.33;;;3.30;;
19341;SDS011;9807;48.258;12.690;2023-08-17T04:25:51;4.90;;;3.87;;
19341;SDS011;9807;48.258;12.690;2023-08-17T04:28:18;4.17;;;3.80;;
19341;SDS011;9807;48.258;12.690;2023-08-17T04:30:44;4.40;;;4.00;;
19341;SDS011;9807;48.258;12.690;2023-08-17T04:33:10;3.27;;;2.97;;
19341;SDS011;9807;48.258;12.690;2023-08-17T04:35:35;5.30;;;4.70;;
19341;SDS011;9807;48.258;12.690;2023-08-17T04:38:01;3.63;;;3.33;;
19341;SDS011;9807;48.258;12.690;2023-08-17T04:40:27;3.87;;;3.47;;
19341;SDS011;9807;48.258;12.690;2023-08-17T04:42:53;4.77;;;4.27;;
19341;SDS011;9807;48.258;12.690;2023-08-17T04:45:19;9.43;;;5.03;;
19341;SDS011;9807;48.258;12.690;2023-08-17T04:47:44;12.20;;;5.57;;
19341;SDS011;9807;48.258;12.690;2023-08-17T04:50:10;5.10;;;4.57;;
19341;SDS011;9807;48.258;12.690;2023-08-17T04:52:37;3.40;;;3.10;;
19341;SDS011;9807;48.258;12.690;2023-08-17T04:55:03;4.60;;;4.17;;
19341;SDS011;9807;48.258;12.690;2023-08-17T04:57:29;4.37;;;3.97;;
19341;SDS011;9807;48.258;12.690;2023-08-17T04:59:54;4.37;;;3.83;;
19341;SDS011;9807;48.258;12.690;2023-08-17T05:02:20;16.87;;;5.43;;
19341;SDS011;9807;48.258;12.690;2023-08-17T05:04:46;4.73;;;4.33;;
19341;SDS011;9807;48.258;12.690;2023-08-17T05:07:11;9.83;;;4.30;;
19341;SDS011;9807;48.258;12.690;2023-08-17T05:09:37;5.97;;;5.40;;
19341;SDS011;9807;48.258;12.690;2023-08-17T05:12:05;9.90;;;4.30;;
19341;SDS011;9807;48.258;12.690;2023-08-17T05:14:31;4.03;;;3.73;;
19341;SDS011;9807;48.258;12.690;2023-08-17T05:16:57;5.47;;;4.80;;
19341;SDS011;9807;48.258;12.690;2023-08-17T05:19:23;5.67;;;5.17;;
19341;SDS011;9807;48.258;12.690;2023-08-17T05:21:48;3.77;;;3.47;;
19341;SDS011;9807;48.258;12.690;2023-08-17T05:24:16;4.47;;;4.13;;
19341;SDS011;9807;48.258;12.690;2023-08-17T05:26:42;6.77;;;5.93;;
19341;SDS011;9807;48.258;12.690;2023-08-17T05:29:08;5.47;;;5.07;;
19341;SDS011;9807;48.258;12.690;2023-08-17T05:31:34;9.97;;;4.30;;
19341;SDS011;9807;48.258;12.690;2023-08-17T05:33:59;7.10;;;5.53;;
19341;SDS011;9807;48.258;12.690;2023-08-17T05:36:25;7.23;;;4.70;;
19341;SDS011;9807;48.258;12.690;2023-08-17T05:38:51;6.73;;;5.53;;
19341;SDS011;9807;48.258;12.690;2023-08-17T05:41:16;6.90;;;6.20;;
19341;SDS011;9807;48.258;12.690;2023-08-17T05:43:42;7.40;;;6.70;;
19341;SDS011;9807;48.258;12.690;2023-08-17T05:46:08;7.60;;;5.53;;
19341;SDS011;9807;48.258;12.690;2023-08-17T05:48:34;5.77;;;4.73;;
19341;SDS011;9807;48.258;12.690;2023-08-17T05:50:59;9.70;;;7.30;;
19341;SDS011;9807;48.258;12.690;2023-08-17T05:53:28;11.23;;;6.80;;
19341;SDS011;9807;48.258;12.690;2023-08-17T05:55:53;13.97;;;8.67;;
19341;SDS011;9807;48.258;12.690;2023-08-17T05:58:19;8.77;;;7.70;;
19341;SDS011;9807;48.258;12.690;2023-08-17T06:00:45;7.37;;;6.63;;
19341;SDS011;9807;48.258;12.690;2023-08-17T06:03:10;6.70;;;6.00;;
19341;SDS011;9807;48.258;12.690;2023-08-17T06:05:36;8.13;;;6.40;;
19341;SDS011;9807;48.258;12.690;2023-08-17T06:08:02;10.90;;;8.53;;
19341;SDS011;9807;48.258;12.690;2023-08-17T06:10:28;7.83;;;7.03;;
19341;SDS011;9807;48.258;12.690;2023-08-17T06:12:54;8.43;;;7.63;;
19341;SDS011;9807;48.258;12.690;2023-08-17T06:15:21;11.63;;;8.13;;
19341;SDS011;9807;48.258;12.690;2023-08-17T06:17:47;7.87;;;7.07;;
19341;SDS011;9807;48.258;12.690;2023-08-17T06:20:16;15.47;;;9.53;;
19341;SDS011;9807;48.258;12.690;2023-08-17T06:22:43;10.13;;;8.47;;
19341;SDS011;9807;48.258;12.690;2023-08-17T06:25:09;8.20;;;7.37;;
19341;SDS011;9807;48.258;12.690;2023-08-17T06:27:35;8.87;;;7.97;;
19341;SDS011;9807;48.258;12.690;2023-08-17T06:30:02;14.63;;;10.53;;
19341;SDS011;9807;48.258;12.690;2023-08-17T06:32:32;9.90;;;8.90;;
19341;SDS011;9807;48.258;12.690;2023-08-17T06:34:57;13.90;;;10.07;;
19341;SDS011;9807;48.258;12.690;2023-08-17T06:37:23;10.90;;;8.43;;
19341;SDS011;9807;48.258;12.690;2023-08-17T06:39:50;9.07;;;8.17;;
19341;SDS011;9807;48.258;12.690;2023-08-17T06:42:16;8.90;;;7.67;;
19341;SDS011;9807;48.258;12.690;2023-08-17T06:44:41;9.07;;;8.10;;
19341;SDS011;9807;48.258;12.690;2023-08-17T06:47:07;10.87;;;8.83;;
19341;SDS011;9807;48.258;12.690;2023-08-17T06:49:34;9.53;;;8.53;;
19341;SDS011;9807;48.258;12.690;2023-08-17T06:52:00;9.27;;;7.20;;
19341;SDS011;9807;48.258;12.690;2023-08-17T06:54:25;12.17;;;9.43;;
19341;SDS011;9807;48.258;12.690;2023-08-17T06:56:51;10.07;;;8.77;;
19341;SDS011;9807;48.258;12.690;2023-08-17T06:59:17;9.67;;;8.37;;
19341;SDS011;9807;48.258;12.690;2023-08-17T07:01:42;12.43;;;9.10;;
19341;SDS011;9807;48.258;12.690;2023-08-17T07:04:08;9.63;;;8.43;;
19341;SDS011;9807;48.258;12.690;2023-08-17T07:06:34;13.13;;;9.50;;
19341;SDS011;9807;48.258;12.690;2023-08-17T07:09:00;11.47;;;10.13;;
19341;SDS011;9807;48.258;12.690;2023-08-17T07:11:25;8.53;;;7.67;;
19341;SDS011;9807;48.258;12.690;2023-08-17T07:13:51;10.97;;;9.83;;
19341;SDS011;9807;48.258;12.690;2023-08-17T07:16:17;9.10;;;8.10;;
19341;SDS011;9807;48.258;12.690;2023-08-17T07:18:45;8.30;;;7.50;;
19341;SDS011;9807;48.258;12.690;2023-08-17T07:21:11;10.50;;;9.47;;
19341;SDS011;9807;48.258;12.690;2023-08-17T07:23:36;13.40;;;10.00;;
19341;SDS011;9807;48.258;12.690;2023-08-17T07:26:02;9.90;;;8.40;;
19341;SDS011;9807;48.258;12.690;2023-08-17T07:28:28;12.73;;;9.20;;
19341;SDS011;9807;48.258;12.690;2023-08-17T07:30:53;9.27;;;7.33;;
19341;SDS011;9807;48.258;12.690;2023-08-17T07:33:19;12.30;;;9.30;;
19341;SDS011;9807;48.258;12.690;2023-08-17T07:35:45;11.40;;;7.97;;
19341;SDS011;9807;48.258;12.690;2023-08-17T07:38:10;10.80;;;9.57;;
19341;SDS011;9807;48.258;12.690;2023-08-17T07:40:38;9.97;;;8.20;;
19341;SDS011;9807;48.258;12.690;2023-08-17T07:43:04;10.90;;;7.90;;
19341;SDS011;9807;48.258;12.690;2023-08-17T07:45:30;11.23;;;8.70;;
19341;SDS011;9807;48.258;12.690;2023-08-17T07:47:55;9.20;;;8.30;;
19341;SDS011;9807;48.258;12.690;2023-08-17T07:50:21;10.77;;;7.63;;
19341;SDS011;9807;48.258;12.690;2023-08-17T07:52:47;8.63;;;7.83;;
19341;SDS011;9807;48.258;12.690;2023-08-17T07:55:13;13.07;;;8.23;;
19341;SDS011;9807;48.258;12.690;2023-08-17T07:57:38;9.53;;;7.90;;
19341;SDS011;9807;48.258;12.690;2023-08-17T08:00:04;9.50;;;8.50;;
19341;SDS011;9807;48.258;12.690;2023-08-17T08:02:30;9.43;;;8.30;;
19341;SDS011;9807;48.258;12.690;2023-08-17T08:04:56;7.93;;;7.23;;
19341;SDS011;9807;48.258;12.690;2023-08-17T08:07:22;8.93;;;8.03;;
19341;SDS011;9807;48.258;12.690;2023-08-17T08:09:47;9.03;;;7.53;;
19341;SDS011;9807;48.258;12.690;2023-08-17T08:12:13;8.10;;;7.30;;
19341;SDS011;9807;48.258;12.690;2023-08-17T08:14:38;8.63;;;7.60;;
19341;SDS011;9807;48.258;12.690;2023-08-17T08:17:04;9.57;;;7.50;;
19341;SDS011;9807;48.258;12.690;2023-08-17T08:19:30;7.80;;;7.00;;
19341;SDS011;9807;48.258;12.690;2023-08-17T08:21:57;8.00;;;7.20;;
19341;SDS011;9807;48.258;12.690;2023-08-17T08:24:23;8.30;;;6.53;;
19341;SDS011;9807;48.258;12.690;2023-08-17T08:26:49;10.10;;;7.13;;
19341;SDS011;9807;48.258;12.690;2023-08-17T08:29:16;8.53;;;6.80;;
19341;SDS011;9807;48.258;12.690;2023-08-17T08:31:41;16.77;;;7.90;;
19341;SDS011;9807;48.258;12.690;2023-08-17T08:34:07;8.07;;;7.07;;
19341;SDS011;9807;48.258;12.690;2023-08-17T08:36:32;8.37;;;7.00;;
19341;SDS011;9807;48.258;12.690;2023-08-17T08:38:58;8.50;;;7.57;;
19341;SDS011;9807;48.258;12.690;2023-08-17T08:41:24;8.90;;;7.90;;
19341;SDS011;9807;48.258;12.690;2023-08-17T08:43:51;8.47;;;7.60;;
19341;SDS011;9807;48.258;12.690;2023-08-17T08:46:20;9.77;;;7.07;;
19341;SDS011;9807;48.258;12.690;2023-08-17T08:48:48;8.10;;;7.30;;
19341;SDS011;9807;48.258;12.690;2023-08-17T08:51:18;10.37;;;7.30;;
19341;SDS011;9807;48.258;12.690;2023-08-17T08:53:48;8.43;;;7.30;;
19341;SDS011;9807;48.258;12.690;2023-08-17T08:56:32;8.73;;;7.27;;
19341;SDS011;9807;48.258;12.690;2023-08-17T08:59:02;11.83;;;7.63;;
19341;SDS011;9807;48.258;12.690;2023-08-17T09:01:32;8.47;;;7.50;;
19341;SDS011;9807;48.258;12.690;2023-08-17T09:03:59;8.17;;;7.37;;
19341;SDS011;9807;48.258;12.690;2023-08-17T09:06:29;10.83;;;8.10;;
19341;SDS011;9807;48.258;12.690;2023-08-17T09:08:56;9.70;;;8.03;;
19341;SDS011;9807;48.258;12.690;2023-08-17T09:11:23;7.50;;;6.90;;
19341;SDS011;9807;48.258;12.690;2023-08-17T09:13:48;11.63;;;8.00;;
19341;SDS011;9807;48.258;12.690;2023-08-17T09:16:14;9.63;;;7.90;;
19341;SDS011;9807;48.258;12.690;2023-08-17T09:18:40;8.13;;;7.03;;
19341;SDS011;9807;48.258;12.690;2023-08-17T09:21:06;8.27;;;7.47;;
19341;SDS011;9807;48.258;12.690;2023-08-17T09:23:32;8.73;;;7.37;;
19341;SDS011;9807;48.258;12.690;2023-08-17T09:25:58;10.87;;;7.97;;
19341;SDS011;9807;48.258;12.690;2023-08-17T09:28:33;8.30;;;7.47;;
19341;SDS011;9807;48.258;12.690;2023-08-17T09:31:03;9.80;;;7.60;;
19341;SDS011;9807;48.258;12.690;2023-08-17T09:33:30;10.00;;;8.10;;
19341;SDS011;9807;48.258;12.690;2023-08-17T09:35:56;8.07;;;7.37;;
19341;SDS011;9807;48.258;12.690;2023-08-17T09:38:23;11.57;;;8.93;;
19341;SDS011;9807;48.258;12.690;2023-08-17T09:40:50;8.50;;;7.60;;
19341;SDS011;9807;48.258;12.690;2023-08-17T09:43:21;8.70;;;7.80;;
19341;SDS011;9807;48.258;12.690;2023-08-17T09:45:47;8.87;;;7.53;;
19341;SDS011;9807;48.258;12.690;2023-08-17T09:48:17;8.67;;;7.80;;
19341;SDS011;9807;48.258;12.690;2023-08-17T09:50:44;10.43;;;7.57;;
19341;SDS011;9807;48.258;12.690;2023-08-17T09:53:13;7.73;;;7.03;;
19341;SDS011;9807;48.258;12.690;2023-08-17T09:55:41;14.43;;;7.23;;
19341;SDS011;9807;48.258;12.690;2023-08-17T09:58:08;8.37;;;7.50;;
19341;SDS011;9807;48.258;12.690;2023-08-17T10:00:33;7.87;;;7.17;;
19341;SDS011;9807;48.258;12.690;2023-08-17T10:03:03;11.50;;;8.53;;
19341;SDS011;9807;48.258;12.690;2023-08-17T10:05:30;9.27;;;7.80;;
19341;SDS011;9807;48.258;12.690;2023-08-17T10:08:05;9.00;;;8.10;;
19341;SDS011;9807;48.258;12.690;2023-08-17T10:10:34;8.83;;;7.93;;
19341;SDS011;9807;48.258;12.690;2023-08-17T10:13:08;11.50;;;7.63;;
19341;SDS011;9807;48.258;12.690;2023-08-17T10:15:53;8.57;;;7.77;;
19341;SDS011;9807;48.258;12.690;2023-08-17T10:18:29;8.83;;;7.93;;
19341;SDS011;9807;48.258;12.690;2023-08-17T10:20:58;9.53;;;8.03;;
19341;SDS011;9807;48.258;12.690;2023-08-17T10:23:27;9.10;;;8.20;;
19341;SDS011;9807;48.258;12.690;2023-08-17T10:25:53;8.50;;;7.60;;
19341;SDS011;9807;48.258;12.690;2023-08-17T10:28:19;7.83;;;7.00;;
19341;SDS011;9807;48.258;12.690;2023-08-17T10:30:46;8.80;;;7.90;;
19341;SDS011;9807;48.258;12.690;2023-08-17T10:33:13;8.70;;;7.77;;
19341;SDS011;9807;48.258;12.690;2023-08-17T10:35:40;9.17;;;7.77;;
19341;SDS011;9807;48.258;12.690;2023-08-17T10:38:07;8.67;;;7.77;;
19341;SDS011;9807;48.258;12.690;2023-08-17T10:40:37;8.93;;;8.03;;
19341;SDS011;9807;48.258;12.690;2023-08-17T10:43:05;9.07;;;7.70;;
19341;SDS011;9807;48.258;12.690;2023-08-17T10:45:33;9.53;;;7.57;;
19341;SDS011;9807;48.258;12.690;2023-08-17T10:50:34;9.33;;;7.60;;
19341;SDS011;9807;48.258;12.690;2023-08-17T10:53:03;8.63;;;7.77;;
19341;SDS011;9807;48.258;12.690;2023-08-17T10:58:06;8.73;;;7.30;;
19341;SDS011;9807;48.258;12.690;2023-08-17T11:00:38;8.37;;;7.47;;
19341;SDS011;9807;48.258;12.690;2023-08-17T11:03:05;9.77;;;7.33;;
19341;SDS011;9807;48.258;12.690;2023-08-17T11:05:34;8.90;;;7.40;;
19341;SDS011;9807;48.258;12.690;2023-08-17T11:08:00;10.07;;;7.27;;
19341;SDS011;9807;48.258;12.690;2023-08-17T11:10:27;9.13;;;7.33;;
19341;SDS011;9807;48.258;12.690;2023-08-17T11:12:54;9.37;;;7.40;;
19341;SDS011;9807;48.258;12.690;2023-08-17T11:15:42;8.07;;;7.27;;
19341;SDS011;9807;48.258;12.690;2023-08-17T11:18:09;9.47;;;7.40;;
19341;SDS011;9807;48.258;12.690;2023-08-17T11:20:37;8.23;;;6.37;;
19341;SDS011;9807;48.258;12.690;2023-08-17T11:23:05;7.13;;;6.47;;
19341;SDS011;9807;48.258;12.690;2023-08-17T11:25:32;7.13;;;6.43;;
19341;SDS011;9807;48.258;12.690;2023-08-17T11:28:02;8.40;;;6.40;;
19341;SDS011;9807;48.258;12.690;2023-08-17T11:30:28;7.17;;;6.47;;
19341;SDS011;9807;48.258;12.690;2023-08-17T11:32:55;9.07;;;6.63;;
19341;SDS011;9807;48.258;12.690;2023-08-17T11:35:21;7.67;;;6.17;;
19341;SDS011;9807;48.258;12.690;2023-08-17T11:37:48;8.33;;;6.53;;
19341;SDS011;9807;48.258;12.690;2023-08-17T11:40:14;7.50;;;6.00;;
19341;SDS011;9807;48.258;12.690;2023-08-17T11:42:41;8.30;;;6.27;;
19341;SDS011;9807;48.258;12.690;2023-08-17T11:45:08;7.83;;;6.50;;
19341;SDS011;9807;48.258;12.690;2023-08-17T11:47:35;8.27;;;6.27;;
19341;SDS011;9807;48.258;12.690;2023-08-17T11:50:13;8.83;;;6.33;;
19341;SDS011;9807;48.258;12.690;2023-08-17T11:52:39;6.93;;;6.30;;
19341;SDS011;9807;48.258;12.690;2023-08-17T11:55:06;6.70;;;6.10;;
19341;SDS011;9807;48.258;12.690;2023-08-17T11:57:34;7.30;;;6.20;;
19341;SDS011;9807;48.258;12.690;2023-08-17T12:00:01;8.97;;;6.67;;
19341;SDS011;9807;48.258;12.690;2023-08-17T12:02:29;7.93;;;6.20;;
19341;SDS011;9807;48.258;12.690;2023-08-17T12:04:55;6.90;;;6.10;;
19341;SDS011;9807;48.258;12.690;2023-08-17T12:07:23;6.70;;;6.10;;
19341;SDS011;9807;48.258;12.690;2023-08-17T12:09:52;6.07;;;5.47;;
19341;SDS011;9807;48.258;12.690;2023-08-17T12:12:18;7.90;;;6.20;;
19341;SDS011;9807;48.258;12.690;2023-08-17T12:14:47;8.53;;;6.20;;
19341;SDS011;9807;48.258;12.690;2023-08-17T12:17:17;6.40;;;5.80;;
19341;SDS011;9807;48.258;12.690;2023-08-17T12:19:44;7.63;;;6.17;;
19341;SDS011;9807;48.258;12.690;2023-08-17T12:22:13;6.57;;;5.97;;
19341;SDS011;9807;48.258;12.690;2023-08-17T12:24:39;7.97;;;6.33;;
19341;SDS011;9807;48.258;12.690;2023-08-17T12:27:05;11.40;;;6.23;;
19341;SDS011;9807;48.258;12.690;2023-08-17T12:29:31;10.73;;;5.83;;
19341;SDS011;9807;48.258;12.690;2023-08-17T12:31:57;7.77;;;6.23;;
19341;SDS011;9807;48.258;12.690;2023-08-17T12:34:26;9.67;;;6.10;;
19341;SDS011;9807;48.258;12.690;2023-08-17T12:36:52;6.50;;;5.87;;
19341;SDS011;9807;48.258;12.690;2023-08-17T12:39:21;6.43;;;5.60;;
19341;SDS011;9807;48.258;12.690;2023-08-17T12:41:47;7.80;;;6.00;;
19341;SDS011;9807;48.258;12.690;2023-08-17T12:44:13;6.10;;;5.50;;
19341;SDS011;9807;48.258;12.690;2023-08-17T12:46:39;7.00;;;5.97;;
19341;SDS011;9807;48.258;12.690;2023-08-17T12:49:05;7.63;;;6.00;;
19341;SDS011;9807;48.258;12.690;2023-08-17T12:51:31;10.17;;;5.97;;
19341;SDS011;9807;48.258;12.690;2023-08-17T12:53:58;8.20;;;5.50;;
19341;SDS011;9807;48.258;12.690;2023-08-17T12:56:23;7.10;;;6.30;;
19341;SDS011;9807;48.258;12.690;2023-08-17T12:58:49;9.27;;;6.87;;
19341;SDS011;9807;48.258;12.690;2023-08-17T13:01:15;10.83;;;6.00;;
19341;SDS011;9807;48.258;12.690;2023-08-17T13:03:41;6.50;;;5.90;;
19341;SDS011;9807;48.258;12.690;2023-08-17T13:06:07;6.40;;;5.80;;
19341;SDS011;9807;48.258;12.690;2023-08-17T13:08:33;6.50;;;5.90;;
19341;SDS011;9807;48.258;12.690;2023-08-17T13:10:59;6.40;;;5.80;;
19341;SDS011;9807;48.258;12.690;2023-08-17T13:13:25;6.30;;;5.70;;
19341;SDS011;9807;48.258;12.690;2023-08-17T13:15:51;7.13;;;5.53;;
19341;SDS011;9807;48.258;12.690;2023-08-17T13:18:17;8.77;;;5.90;;
19341;SDS011;9807;48.258;12.690;2023-08-17T13:20:43;7.53;;;6.53;;
19341;SDS011;9807;48.258;12.690;2023-08-17T13:23:10;5.97;;;5.37;;
19341;SDS011;9807;48.258;12.690;2023-08-17T13:25:35;8.10;;;6.27;;
19341;SDS011;9807;48.258;12.690;2023-08-17T13:28:01;6.30;;;5.70;;
19341;SDS011;9807;48.258;12.690;2023-08-17T13:30:27;11.53;;;6.70;;
19341;SDS011;9807;48.258;12.690;2023-08-17T13:32:53;7.43;;;6.20;;
19341;SDS011;9807;48.258;12.690;2023-08-17T13:35:19;7.27;;;6.13;;
19341;SDS011;9807;48.258;12.690;2023-08-17T13:37:44;9.07;;;6.60;;
19341;SDS011;9807;48.258;12.690;2023-08-17T13:40:10;9.57;;;6.40;;
19341;SDS011;9807;48.258;12.690;2023-08-17T13:42:36;6.40;;;5.80;;
19341;SDS011;9807;48.258;12.690;2023-08-17T13:45:02;9.67;;;6.33;;
19341;SDS011;9807;48.258;12.690;2023-08-17T13:47:28;6.93;;;6.23;;
19341;SDS011;9807;48.258;12.690;2023-08-17T13:49:54;7.20;;;6.50;;
19341;SDS011;9807;48.258;12.690;2023-08-17T13:52:22;7.97;;;6.27;;
19341;SDS011;9807;48.258;12.690;2023-08-17T13:54:48;8.63;;;6.47;;
19341;SDS011;9807;48.258;12.690;2023-08-17T13:57:13;6.90;;;6.30;;
19341;SDS011;9807;48.258;12.690;2023-08-17T13:59:39;8.43;;;6.70;;
19341;SDS011;9807;48.258;12.690;2023-08-17T14:02:04;7.73;;;6.20;;
19341;SDS011;9807;48.258;12.690;2023-08-17T14:04:30;6.90;;;6.20;;
19341;SDS011;9807;48.258;12.690;2023-08-17T14:06:56;6.73;;;5.93;;
19341;SDS011;9807;48.258;12.690;2023-08-17T14:09:22;7.87;;;6.30;;
19341;SDS011;9807;48.258;12.690;2023-08-17T14:11:47;6.87;;;6.10;;
19341;SDS011;9807;48.258;12.690;2023-08-17T14:14:13;7.17;;;6.13;;
19341;SDS011;9807;48.258;12.690;2023-08-17T14:16:39;7.53;;;5.50;;
19341;SDS011;9807;48.258;12.690;2023-08-17T14:19:04;6.43;;;5.77;;
19341;SDS011;9807;48.258;12.690;2023-08-17T14:21:30;6.70;;;6.00;;
19341;SDS011;9807;48.258;12.690;2023-08-17T14:23:55;5.87;;;5.37;;
19341;SDS011;9807;48.258;12.690;2023-08-17T14:26:21;6.23;;;5.73;;
19341;SDS011;9807;48.258;12.690;2023-08-17T14:28:49;6.20;;;5.60;;
19341;SDS011;9807;48.258;12.690;2023-08-17T14:31:15;7.93;;;6.00;;
19341;SDS011;9807;48.258;12.690;2023-08-17T14:33:43;6.60;;;5.77;;
19341;SDS011;9807;48.258;12.690;2023-08-17T14:36:12;7.43;;;5.80;;
19341;SDS011;9807;48.258;12.690;2023-08-17T14:38:39;6.57;;;5.67;;
19341;SDS011;9807;48.258;12.690;2023-08-17T14:41:04;7.03;;;5.23;;
19341;SDS011;9807;48.258;12.690;2023-08-17T14:43:34;6.93;;;5.70;;
19341;SDS011;9807;48.258;12.690;2023-08-17T14:46:00;6.50;;;5.77;;
19341;SDS011;9807;48.258;12.690;2023-08-17T14:48:29;8.20;;;5.70;;
19341;SDS011;9807;48.258;12.690;2023-08-17T14:50:55;6.90;;;5.63;;